Impacts METAR Board
IDs:

KTCL - Tuscaloosa Rgnl, AL, US

Updated at: 1300 UTC 19 Aug 2019
Potential Impact None Slight Moderate High
Time 19/01Z 19/02Z 19/03Z 19/04Z 19/05Z 19/06Z 19/07Z 19/08Z 19/09Z 19/10Z 19/11Z 19/12Z 19/13Z
Temp85 83 85 80 81 79 78 77 77 77 77 78 81
Dewpt73 73 72 74 73 74 73 74 74 74 74 74 75
Altim29.94 29.95 29.96 29.97 29.99 29.99 30.00 29.99 30.00 30.01 30.02 30.04 30.05
VIS10 10 10 10 10 10 10 9 8 9 8 8 6
CIG-- -- -- -- -- -- 75 -- -- -- -- -- --
CoverFEWCLRCLRCLRFEWCLRBKNCLRCLRCLRCLRCLRCLR
FltCatVFRVFRVFRVFRVFRVFRVFRVFRVFRVFRVFRVFRVFR
WX------------------------HZ
WDir00000024018000031060
WSpd0 0 0 0 0 0 3 3 0 0 0 4 3
WGst-- -- -- -- -- -- -- -- -- -- -- -- --
Raw hourly METARs
KTCL 190053Z 00000KT 10SM FEW002 29/23 A2994 RMK AO2 SLP137 T02940228 $
KTCL 190153Z AUTO 00000KT 10SM CLR 28/23 A2995 RMK AO2 SLP139 T02830228 $
KTCL 190253Z AUTO 00000KT 10SM CLR 29/22 A2996 RMK AO2 SLP143 T02940222 53008 $
KTCL 190353Z AUTO 00000KT 10SM CLR 27/23 A2997 RMK AO2 SLP147 T02670233 $
KTCL 190453Z AUTO 00000KT 10SM FEW075 27/23 A2999 RMK AO2 SLP153 T02720228 $
KTCL 190553Z AUTO 00000KT 10SM CLR 26/23 A2999 RMK AO2 SLP154 T02610233 10317 20256 403720211 51011 $
KTCL 190653Z AUTO 24003KT 10SM BKN075 26/23 A3000 RMK AO2 SLP156 T02560228 $
KTCL 190753Z AUTO 18003KT 9SM CLR 25/23 A2999 RMK AO2 SLP151 T02500233 $
KTCL 190853Z AUTO 00000KT 8SM CLR 25/23 A3000 RMK AO2 SLP155 T02500233 53001 $
KTCL 190953Z AUTO 00000KT 9SM CLR 25/23 A3001 RMK AO2 SLP159 T02500233 $
KTCL 191053Z AUTO 00000KT 8SM CLR 25/23 A3002 RMK AO2 SLP164 T02500233 $
KTCL 191153Z 31004KT 8SM CLR 26/23 A3004 RMK AO2 SLP170 T02560233 10261 20244 53015 $
KTCL 191253Z 06003KT 6SM HZ CLR 27/24 A3005 RMK AO2 SLP171 T02720239



Page loaded:  13:47 UTC  |   06:47 AM Pacific  |   07:47 AM Mountain  |   08:47 AM Central  |   09:47 AM Eastern

 

ADVISORIES

FORECASTS

FORECASTS

OBSERVATIONS

USER TOOLS

ABOUT US